sensor_id;sensor_type;location;lat;lon;timestamp;P1;durP1;ratioP1;P2;durP2;ratioP2
3601;SDS011;1815;50.950;6.920;2024-01-16T00:01:44;10.40;;;5.53;;
3601;SDS011;1815;50.950;6.920;2024-01-16T00:04:10;7.73;;;4.80;;
3601;SDS011;1815;50.950;6.920;2024-01-16T00:06:42;5.00;;;4.20;;
3601;SDS011;1815;50.950;6.920;2024-01-16T00:09:08;6.28;;;4.55;;
3601;SDS011;1815;50.950;6.920;2024-01-16T00:11:40;6.43;;;4.30;;
3601;SDS011;1815;50.950;6.920;2024-01-16T00:14:06;11.77;;;5.10;;
3601;SDS011;1815;50.950;6.920;2024-01-16T00:16:32;6.03;;;4.00;;
3601;SDS011;1815;50.950;6.920;2024-01-16T00:18:58;6.10;;;5.50;;
3601;SDS011;1815;50.950;6.920;2024-01-16T00:21:24;9.60;;;5.80;;
3601;SDS011;1815;50.950;6.920;2024-01-16T00:23:49;11.57;;;5.27;;
3601;SDS011;1815;50.950;6.920;2024-01-16T00:26:22;6.90;;;5.17;;
3601;SDS011;1815;50.950;6.920;2024-01-16T00:28:48;6.95;;;4.85;;
3601;SDS011;1815;50.950;6.920;2024-01-16T00:31:13;6.83;;;4.83;;
3601;SDS011;1815;50.950;6.920;2024-01-16T00:33:39;7.15;;;5.70;;
3601;SDS011;1815;50.950;6.920;2024-01-16T00:36:05;9.27;;;5.37;;
3601;SDS011;1815;50.950;6.920;2024-01-16T00:38:34;8.27;;;5.07;;
3601;SDS011;1815;50.950;6.920;2024-01-16T00:41:00;8.43;;;4.90;;
3601;SDS011;1815;50.950;6.920;2024-01-16T00:43:26;7.47;;;5.07;;
3601;SDS011;1815;50.950;6.920;2024-01-16T00:45:51;6.50;;;4.40;;
3601;SDS011;1815;50.950;6.920;2024-01-16T00:48:17;5.70;;;4.57;;
3601;SDS011;1815;50.950;6.920;2024-01-16T00:50:44;7.82;;;5.30;;
3601;SDS011;1815;50.950;6.920;2024-01-16T00:53:11;6.78;;;5.55;;
3601;SDS011;1815;50.950;6.920;2024-01-16T00:55:37;8.93;;;5.73;;
3601;SDS011;1815;50.950;6.920;2024-01-16T00:58:03;7.80;;;5.73;;
3601;SDS011;1815;50.950;6.920;2024-01-16T01:00:28;6.90;;;5.47;;
3601;SDS011;1815;50.950;6.920;2024-01-16T01:02:56;10.10;;;5.90;;
3601;SDS011;1815;50.950;6.920;2024-01-16T01:05:24;7.43;;;5.60;;
3601;SDS011;1815;50.950;6.920;2024-01-16T01:07:56;8.35;;;5.28;;
3601;SDS011;1815;50.950;6.920;2024-01-16T01:10:22;10.95;;;5.22;;
3601;SDS011;1815;50.950;6.920;2024-01-16T01:12:48;10.98;;;5.22;;
3601;SDS011;1815;50.950;6.920;2024-01-16T01:15:14;7.47;;;4.30;;
3601;SDS011;1815;50.950;6.920;2024-01-16T01:17:40;5.77;;;4.70;;
3601;SDS011;1815;50.950;6.920;2024-01-16T01:20:07;8.13;;;4.77;;
3601;SDS011;1815;50.950;6.920;2024-01-16T01:22:33;8.98;;;4.45;;
3601;SDS011;1815;50.950;6.920;2024-01-16T01:24:59;7.80;;;4.20;;
3601;SDS011;1815;50.950;6.920;2024-01-16T01:27:26;6.03;;;4.40;;
3601;SDS011;1815;50.950;6.920;2024-01-16T01:29:51;9.70;;;5.10;;
3601;SDS011;1815;50.950;6.920;2024-01-16T01:32:17;6.87;;;4.90;;
3601;SDS011;1815;50.950;6.920;2024-01-16T01:34:43;5.40;;;4.60;;
3601;SDS011;1815;50.950;6.920;2024-01-16T01:37:08;5.40;;;3.80;;
3601;SDS011;1815;50.950;6.920;2024-01-16T01:39:34;6.93;;;5.00;;
3601;SDS011;1815;50.950;6.920;2024-01-16T01:42:00;9.10;;;4.30;;
3601;SDS011;1815;50.950;6.920;2024-01-16T01:44:26;5.67;;;3.50;;
3601;SDS011;1815;50.950;6.920;2024-01-16T01:46:53;6.03;;;4.13;;
3601;SDS011;1815;50.950;6.920;2024-01-16T01:49:20;5.95;;;4.65;;
3601;SDS011;1815;50.950;6.920;2024-01-16T01:51:46;9.32;;;3.70;;
3601;SDS011;1815;50.950;6.920;2024-01-16T01:54:13;5.55;;;4.57;;
3601;SDS011;1815;50.950;6.920;2024-01-16T01:56:41;7.85;;;4.45;;
3601;SDS011;1815;50.950;6.920;2024-01-16T01:59:09;9.65;;;4.40;;
3601;SDS011;1815;50.950;6.920;2024-01-16T02:01:36;6.28;;;3.75;;
3601;SDS011;1815;50.950;6.920;2024-01-16T02:04:02;7.60;;;4.50;;
3601;SDS011;1815;50.950;6.920;2024-01-16T02:06:30;6.20;;;4.00;;
3601;SDS011;1815;50.950;6.920;2024-01-16T02:08:56;5.70;;;3.70;;
3601;SDS011;1815;50.950;6.920;2024-01-16T02:11:22;5.95;;;4.18;;
3601;SDS011;1815;50.950;6.920;2024-01-16T02:13:48;5.53;;;3.77;;
3601;SDS011;1815;50.950;6.920;2024-01-16T02:16:20;5.63;;;3.63;;
3601;SDS011;1815;50.950;6.920;2024-01-16T02:18:47;6.80;;;4.05;;
3601;SDS011;1815;50.950;6.920;2024-01-16T02:21:24;8.20;;;5.00;;
3601;SDS011;1815;50.950;6.920;2024-01-16T02:23:53;7.07;;;4.22;;
3601;SDS011;1815;50.950;6.920;2024-01-16T02:26:19;7.20;;;4.88;;
3601;SDS011;1815;50.950;6.920;2024-01-16T02:28:45;7.05;;;4.57;;
3601;SDS011;1815;50.950;6.920;2024-01-16T02:31:11;9.07;;;4.73;;
3601;SDS011;1815;50.950;6.920;2024-01-16T02:33:37;14.73;;;5.78;;
3601;SDS011;1815;50.950;6.920;2024-01-16T02:36:03;5.40;;;4.90;;
3601;SDS011;1815;50.950;6.920;2024-01-16T02:38:29;8.63;;;5.43;;
3601;SDS011;1815;50.950;6.920;2024-01-16T02:40:54;6.40;;;4.37;;
3601;SDS011;1815;50.950;6.920;2024-01-16T02:43:20;4.60;;;3.88;;
3601;SDS011;1815;50.950;6.920;2024-01-16T02:45:46;5.63;;;4.57;;
3601;SDS011;1815;50.950;6.920;2024-01-16T02:48:13;9.43;;;4.43;;
3601;SDS011;1815;50.950;6.920;2024-01-16T02:50:38;5.50;;;4.00;;
3601;SDS011;1815;50.950;6.920;2024-01-16T02:53:04;5.27;;;4.10;;
3601;SDS011;1815;50.950;6.920;2024-01-16T02:55:29;4.50;;;3.83;;
3601;SDS011;1815;50.950;6.920;2024-01-16T02:57:55;8.93;;;3.93;;
3601;SDS011;1815;50.950;6.920;2024-01-16T03:00:21;8.17;;;4.77;;
3601;SDS011;1815;50.950;6.920;2024-01-16T03:02:47;6.30;;;4.55;;
3601;SDS011;1815;50.950;6.920;2024-01-16T03:05:14;8.75;;;5.20;;
3601;SDS011;1815;50.950;6.920;2024-01-16T03:07:40;7.25;;;4.10;;
3601;SDS011;1815;50.950;6.920;2024-01-16T03:10:06;4.50;;;4.05;;
3601;SDS011;1815;50.950;6.920;2024-01-16T03:12:32;6.07;;;4.55;;
3601;SDS011;1815;50.950;6.920;2024-01-16T03:14:58;6.53;;;4.27;;
3601;SDS011;1815;50.950;6.920;2024-01-16T03:17:24;5.53;;;4.83;;
3601;SDS011;1815;50.950;6.920;2024-01-16T03:19:50;7.53;;;4.47;;
3601;SDS011;1815;50.950;6.920;2024-01-16T03:22:15;5.60;;;4.47;;
3601;SDS011;1815;50.950;6.920;2024-01-16T03:24:41;8.47;;;4.50;;
3601;SDS011;1815;50.950;6.920;2024-01-16T03:27:07;4.93;;;3.70;;
3601;SDS011;1815;50.950;6.920;2024-01-16T03:29:32;7.37;;;4.63;;
3601;SDS011;1815;50.950;6.920;2024-01-16T03:31:59;8.23;;;4.90;;
3601;SDS011;1815;50.950;6.920;2024-01-16T03:34:26;8.57;;;4.80;;
3601;SDS011;1815;50.950;6.920;2024-01-16T03:36:52;7.40;;;3.95;;
3601;SDS011;1815;50.950;6.920;2024-01-16T03:39:17;10.80;;;4.80;;
3601;SDS011;1815;50.950;6.920;2024-01-16T03:41:43;5.60;;;4.50;;
3601;SDS011;1815;50.950;6.920;2024-01-16T03:44:09;7.90;;;4.90;;
3601;SDS011;1815;50.950;6.920;2024-01-16T03:46:35;7.03;;;4.60;;
3601;SDS011;1815;50.950;6.920;2024-01-16T03:49:00;4.97;;;3.47;;
3601;SDS011;1815;50.950;6.920;2024-01-16T03:51:26;8.70;;;4.40;;
3601;SDS011;1815;50.950;6.920;2024-01-16T03:53:52;5.90;;;4.10;;
3601;SDS011;1815;50.950;6.920;2024-01-16T03:56:17;6.60;;;3.50;;
3601;SDS011;1815;50.950;6.920;2024-01-16T03:58:43;7.33;;;5.40;;
3601;SDS011;1815;50.950;6.920;2024-01-16T04:01:09;8.37;;;5.43;;
3601;SDS011;1815;50.950;6.920;2024-01-16T04:03:35;8.77;;;5.87;;
3601;SDS011;1815;50.950;6.920;2024-01-16T04:06:01;7.80;;;4.43;;
3601;SDS011;1815;50.950;6.920;2024-01-16T04:08:26;7.10;;;5.00;;
3601;SDS011;1815;50.950;6.920;2024-01-16T04:10:52;8.53;;;6.20;;
3601;SDS011;1815;50.950;6.920;2024-01-16T04:13:18;7.33;;;5.40;;
3601;SDS011;1815;50.950;6.920;2024-01-16T04:15:43;5.83;;;5.27;;
3601;SDS011;1815;50.950;6.920;2024-01-16T04:18:10;8.83;;;5.63;;
3601;SDS011;1815;50.950;6.920;2024-01-16T04:20:36;6.35;;;5.20;;
3601;SDS011;1815;50.950;6.920;2024-01-16T04:23:02;7.63;;;5.40;;
3601;SDS011;1815;50.950;6.920;2024-01-16T04:25:28;9.95;;;5.57;;
3601;SDS011;1815;50.950;6.920;2024-01-16T04:27:54;8.55;;;6.13;;
3601;SDS011;1815;50.950;6.920;2024-01-16T04:30:20;9.97;;;5.50;;
3601;SDS011;1815;50.950;6.920;2024-01-16T04:32:46;8.80;;;5.75;;
3601;SDS011;1815;50.950;6.920;2024-01-16T04:35:12;7.43;;;6.20;;
3601;SDS011;1815;50.950;6.920;2024-01-16T04:37:37;7.10;;;5.30;;
3601;SDS011;1815;50.950;6.920;2024-01-16T04:40:04;9.70;;;6.67;;
3601;SDS011;1815;50.950;6.920;2024-01-16T04:42:31;7.00;;;6.03;;
3601;SDS011;1815;50.950;6.920;2024-01-16T04:44:57;6.78;;;5.15;;
3601;SDS011;1815;50.950;6.920;2024-01-16T04:47:23;10.67;;;5.67;;
3601;SDS011;1815;50.950;6.920;2024-01-16T04:49:48;9.27;;;4.73;;
3601;SDS011;1815;50.950;6.920;2024-01-16T04:52:14;11.73;;;5.67;;
3601;SDS011;1815;50.950;6.920;2024-01-16T04:54:41;10.20;;;4.82;;
3601;SDS011;1815;50.950;6.920;2024-01-16T04:57:07;8.33;;;3.67;;
3601;SDS011;1815;50.950;6.920;2024-01-16T04:59:33;7.20;;;3.70;;
3601;SDS011;1815;50.950;6.920;2024-01-16T05:01:59;7.15;;;3.90;;
3601;SDS011;1815;50.950;6.920;2024-01-16T05:04:26;9.45;;;3.70;;
3601;SDS011;1815;50.950;6.920;2024-01-16T05:06:51;8.80;;;3.53;;
3601;SDS011;1815;50.950;6.920;2024-01-16T05:09:17;6.43;;;3.57;;
3601;SDS011;1815;50.950;6.920;2024-01-16T05:11:44;10.27;;;3.33;;
3601;SDS011;1815;50.950;6.920;2024-01-16T05:14:11;5.43;;;3.20;;
3601;SDS011;1815;50.950;6.920;2024-01-16T05:16:36;5.57;;;3.50;;
3601;SDS011;1815;50.950;6.920;2024-01-16T05:19:02;7.07;;;3.40;;
3601;SDS011;1815;50.950;6.920;2024-01-16T05:21:28;5.80;;;2.67;;
3601;SDS011;1815;50.950;6.920;2024-01-16T05:23:53;4.97;;;2.70;;
3601;SDS011;1815;50.950;6.920;2024-01-16T05:26:19;11.43;;;3.27;;
3601;SDS011;1815;50.950;6.920;2024-01-16T05:28:45;7.60;;;3.17;;
3601;SDS011;1815;50.950;6.920;2024-01-16T05:31:11;9.57;;;4.00;;
3601;SDS011;1815;50.950;6.920;2024-01-16T05:33:36;5.37;;;2.60;;
3601;SDS011;1815;50.950;6.920;2024-01-16T05:36:02;8.10;;;3.80;;
3601;SDS011;1815;50.950;6.920;2024-01-16T05:38:28;5.30;;;2.70;;
3601;SDS011;1815;50.950;6.920;2024-01-16T05:40:54;6.63;;;2.57;;
3601;SDS011;1815;50.950;6.920;2024-01-16T05:43:19;5.93;;;3.00;;
3601;SDS011;1815;50.950;6.920;2024-01-16T05:45:45;6.77;;;3.00;;
3601;SDS011;1815;50.950;6.920;2024-01-16T05:48:11;7.80;;;3.93;;
3601;SDS011;1815;50.950;6.920;2024-01-16T05:50:37;7.63;;;2.70;;
3601;SDS011;1815;50.950;6.920;2024-01-16T05:53:03;7.97;;;2.87;;
3601;SDS011;1815;50.950;6.920;2024-01-16T05:55:28;5.30;;;2.97;;
3601;SDS011;1815;50.950;6.920;2024-01-16T05:57:57;6.35;;;3.42;;
3601;SDS011;1815;50.950;6.920;2024-01-16T06:00:24;5.22;;;3.65;;
3601;SDS011;1815;50.950;6.920;2024-01-16T06:02:50;7.00;;;3.30;;
3601;SDS011;1815;50.950;6.920;2024-01-16T06:05:16;6.50;;;3.37;;
3601;SDS011;1815;50.950;6.920;2024-01-16T06:07:41;7.33;;;3.30;;
3601;SDS011;1815;50.950;6.920;2024-01-16T06:10:08;7.40;;;3.23;;
3601;SDS011;1815;50.950;6.920;2024-01-16T06:12:37;9.20;;;3.67;;
3601;SDS011;1815;50.950;6.920;2024-01-16T06:15:02;7.63;;;3.10;;
3601;SDS011;1815;50.950;6.920;2024-01-16T06:17:28;6.23;;;3.00;;
3601;SDS011;1815;50.950;6.920;2024-01-16T06:19:54;5.47;;;3.17;;
3601;SDS011;1815;50.950;6.920;2024-01-16T06:22:20;11.00;;;3.53;;
3601;SDS011;1815;50.950;6.920;2024-01-16T06:24:46;8.17;;;3.30;;
3601;SDS011;1815;50.950;6.920;2024-01-16T06:27:12;5.20;;;3.00;;
3601;SDS011;1815;50.950;6.920;2024-01-16T06:29:44;9.80;;;3.05;;
3601;SDS011;1815;50.950;6.920;2024-01-16T06:32:11;9.18;;;3.35;;
3601;SDS011;1815;50.950;6.920;2024-01-16T06:34:40;4.43;;;2.58;;
3601;SDS011;1815;50.950;6.920;2024-01-16T06:37:06;5.22;;;3.10;;
3601;SDS011;1815;50.950;6.920;2024-01-16T06:39:32;4.30;;;2.90;;
3601;SDS011;1815;50.950;6.920;2024-01-16T06:41:58;10.50;;;3.72;;
3601;SDS011;1815;50.950;6.920;2024-01-16T06:44:24;6.47;;;3.03;;
3601;SDS011;1815;50.950;6.920;2024-01-16T06:46:49;8.33;;;3.77;;
3601;SDS011;1815;50.950;6.920;2024-01-16T06:49:15;4.50;;;2.43;;
3601;SDS011;1815;50.950;6.920;2024-01-16T06:51:41;5.87;;;2.30;;
3601;SDS011;1815;50.950;6.920;2024-01-16T06:54:07;12.60;;;3.43;;
3601;SDS011;1815;50.950;6.920;2024-01-16T06:56:32;4.10;;;2.80;;
3601;SDS011;1815;50.950;6.920;2024-01-16T06:58:58;8.43;;;3.33;;
3601;SDS011;1815;50.950;6.920;2024-01-16T07:01:24;5.47;;;2.60;;
3601;SDS011;1815;50.950;6.920;2024-01-16T07:03:50;7.90;;;3.40;;
3601;SDS011;1815;50.950;6.920;2024-01-16T07:06:17;6.00;;;2.60;;
3601;SDS011;1815;50.950;6.920;2024-01-16T07:08:44;8.27;;;3.03;;
3601;SDS011;1815;50.950;6.920;2024-01-16T07:11:10;7.50;;;2.73;;
3601;SDS011;1815;50.950;6.920;2024-01-16T07:13:38;6.30;;;2.58;;
3601;SDS011;1815;50.950;6.920;2024-01-16T07:16:05;5.28;;;2.20;;
3601;SDS011;1815;50.950;6.920;2024-01-16T07:18:34;6.47;;;3.15;;
3601;SDS011;1815;50.950;6.920;2024-01-16T07:21:00;9.17;;;3.43;;
3601;SDS011;1815;50.950;6.920;2024-01-16T07:23:26;6.10;;;2.22;;
3601;SDS011;1815;50.950;6.920;2024-01-16T07:25:52;7.43;;;2.77;;
3601;SDS011;1815;50.950;6.920;2024-01-16T07:28:18;8.10;;;3.10;;
3601;SDS011;1815;50.950;6.920;2024-01-16T07:30:44;5.47;;;2.60;;
3601;SDS011;1815;50.950;6.920;2024-01-16T07:33:09;6.70;;;2.27;;
3601;SDS011;1815;50.950;6.920;2024-01-16T07:35:36;6.13;;;2.80;;
3601;SDS011;1815;50.950;6.920;2024-01-16T07:38:04;3.70;;;2.03;;
3601;SDS011;1815;50.950;6.920;2024-01-16T07:40:29;4.70;;;1.97;;
3601;SDS011;1815;50.950;6.920;2024-01-16T07:42:55;8.60;;;3.10;;
3601;SDS011;1815;50.950;6.920;2024-01-16T07:45:21;4.60;;;2.60;;
3601;SDS011;1815;50.950;6.920;2024-01-16T07:47:47;4.63;;;1.57;;
3601;SDS011;1815;50.950;6.920;2024-01-16T07:50:12;6.70;;;2.40;;
3601;SDS011;1815;50.950;6.920;2024-01-16T07:52:38;6.47;;;2.00;;
3601;SDS011;1815;50.950;6.920;2024-01-16T07:55:04;5.70;;;2.10;;
3601;SDS011;1815;50.950;6.920;2024-01-16T07:57:30;5.60;;;2.03;;
3601;SDS011;1815;50.950;6.920;2024-01-16T07:59:56;5.33;;;1.90;;
3601;SDS011;1815;50.950;6.920;2024-01-16T08:02:22;3.60;;;1.98;;
3601;SDS011;1815;50.950;6.920;2024-01-16T08:04:52;4.38;;;2.25;;
3601;SDS011;1815;50.950;6.920;2024-01-16T08:07:18;3.45;;;1.70;;
3601;SDS011;1815;50.950;6.920;2024-01-16T08:09:43;5.50;;;2.07;;
3601;SDS011;1815;50.950;6.920;2024-01-16T08:12:09;5.30;;;2.03;;
3601;SDS011;1815;50.950;6.920;2024-01-16T08:14:35;7.57;;;2.20;;
3601;SDS011;1815;50.950;6.920;2024-01-16T08:17:01;8.00;;;2.40;;
3601;SDS011;1815;50.950;6.920;2024-01-16T08:19:26;5.50;;;2.30;;
3601;SDS011;1815;50.950;6.920;2024-01-16T08:21:52;3.67;;;1.87;;
3601;SDS011;1815;50.950;6.920;2024-01-16T08:24:18;2.90;;;1.07;;
3601;SDS011;1815;50.950;6.920;2024-01-16T08:26:44;4.10;;;1.77;;
3601;SDS011;1815;50.950;6.920;2024-01-16T08:29:09;4.90;;;1.70;;
3601;SDS011;1815;50.950;6.920;2024-01-16T08:31:35;4.93;;;1.53;;
3601;SDS011;1815;50.950;6.920;2024-01-16T08:34:01;5.40;;;1.90;;
3601;SDS011;1815;50.950;6.920;2024-01-16T08:36:26;3.83;;;1.93;;
3601;SDS011;1815;50.950;6.920;2024-01-16T08:38:52;7.87;;;1.90;;
3601;SDS011;1815;50.950;6.920;2024-01-16T08:41:19;3.47;;;1.25;;
3601;SDS011;1815;50.950;6.920;2024-01-16T08:43:45;3.70;;;1.80;;
3601;SDS011;1815;50.950;6.920;2024-01-16T08:46:10;4.03;;;1.53;;
3601;SDS011;1815;50.950;6.920;2024-01-16T08:48:36;3.10;;;1.20;;
3601;SDS011;1815;50.950;6.920;2024-01-16T08:51:06;6.50;;;2.05;;
3601;SDS011;1815;50.950;6.920;2024-01-16T08:53:33;4.93;;;2.10;;
3601;SDS011;1815;50.950;6.920;2024-01-16T08:55:59;4.93;;;1.73;;
3601;SDS011;1815;50.950;6.920;2024-01-16T08:58:26;3.63;;;1.55;;
3601;SDS011;1815;50.950;6.920;2024-01-16T09:00:52;4.60;;;1.73;;
3601;SDS011;1815;50.950;6.920;2024-01-16T09:03:17;4.53;;;1.37;;
3601;SDS011;1815;50.950;6.920;2024-01-16T09:05:43;5.97;;;2.10;;
3601;SDS011;1815;50.950;6.920;2024-01-16T09:08:09;6.20;;;2.27;;
3601;SDS011;1815;50.950;6.920;2024-01-16T09:10:35;3.73;;;1.83;;
3601;SDS011;1815;50.950;6.920;2024-01-16T09:13:00;3.40;;;1.37;;
3601;SDS011;1815;50.950;6.920;2024-01-16T09:15:26;4.73;;;1.93;;
3601;SDS011;1815;50.950;6.920;2024-01-16T09:17:52;4.70;;;2.00;;
3601;SDS011;1815;50.950;6.920;2024-01-16T09:20:17;3.83;;;1.47;;
3601;SDS011;1815;50.950;6.920;2024-01-16T09:22:43;3.23;;;1.70;;
3601;SDS011;1815;50.950;6.920;2024-01-16T09:25:09;2.30;;;1.53;;
3601;SDS011;1815;50.950;6.920;2024-01-16T09:27:34;6.30;;;1.93;;
3601;SDS011;1815;50.950;6.920;2024-01-16T09:30:00;2.80;;;1.37;;
3601;SDS011;1815;50.950;6.920;2024-01-16T09:32:26;6.00;;;1.80;;
3601;SDS011;1815;50.950;6.920;2024-01-16T09:34:51;3.83;;;1.20;;
3601;SDS011;1815;50.950;6.920;2024-01-16T09:37:17;6.00;;;1.40;;
3601;SDS011;1815;50.950;6.920;2024-01-16T09:39:43;4.82;;;1.70;;
3601;SDS011;1815;50.950;6.920;2024-01-16T09:42:09;3.00;;;1.40;;
3601;SDS011;1815;50.950;6.920;2024-01-16T09:44:35;6.63;;;1.50;;
3601;SDS011;1815;50.950;6.920;2024-01-16T09:47:01;5.60;;;1.30;;
3601;SDS011;1815;50.950;6.920;2024-01-16T09:49:29;7.03;;;1.85;;
3601;SDS011;1815;50.950;6.920;2024-01-16T09:51:54;3.28;;;2.03;;
3601;SDS011;1815;50.950;6.920;2024-01-16T09:54:21;3.50;;;1.50;;
3601;SDS011;1815;50.950;6.920;2024-01-16T09:56:47;8.40;;;1.85;;
3601;SDS011;1815;50.950;6.920;2024-01-16T09:59:16;5.20;;;2.30;;
3601;SDS011;1815;50.950;6.920;2024-01-16T10:01:46;5.90;;;2.47;;
3601;SDS011;1815;50.950;6.920;2024-01-16T10:04:21;7.22;;;1.95;;
3601;SDS011;1815;50.950;6.920;2024-01-16T10:06:47;4.32;;;1.52;;
3601;SDS011;1815;50.950;6.920;2024-01-16T10:09:15;8.15;;;2.20;;
3601;SDS011;1815;50.950;6.920;2024-01-16T10:11:41;4.47;;;2.25;;
3601;SDS011;1815;50.950;6.920;2024-01-16T10:14:07;6.25;;;1.80;;
3601;SDS011;1815;50.950;6.920;2024-01-16T10:19:28;5.55;;;2.20;;
3601;SDS011;1815;50.950;6.920;2024-01-16T10:22:01;7.57;;;2.17;;
3601;SDS011;1815;50.950;6.920;2024-01-16T10:24:28;3.17;;;1.45;;
3601;SDS011;1815;50.950;6.920;2024-01-16T10:26:58;5.20;;;2.28;;
3601;SDS011;1815;50.950;6.920;2024-01-16T10:29:26;5.13;;;1.75;;
3601;SDS011;1815;50.950;6.920;2024-01-16T10:31:52;7.18;;;1.70;;
3601;SDS011;1815;50.950;6.920;2024-01-16T10:34:21;7.20;;;2.70;;
3601;SDS011;1815;50.950;6.920;2024-01-16T10:36:49;5.70;;;1.55;;
3601;SDS011;1815;50.950;6.920;2024-01-16T10:39:17;6.60;;;1.98;;
3601;SDS011;1815;50.950;6.920;2024-01-16T10:41:58;3.20;;;1.20;;
3601;SDS011;1815;50.950;6.920;2024-01-16T10:44:25;3.67;;;1.33;;
3601;SDS011;1815;50.950;6.920;2024-01-16T10:46:55;3.80;;;2.20;;
3601;SDS011;1815;50.950;6.920;2024-01-16T10:49:37;5.32;;;1.45;;
3601;SDS011;1815;50.950;6.920;2024-01-16T10:52:03;3.25;;;1.30;;
3601;SDS011;1815;50.950;6.920;2024-01-16T10:54:35;4.57;;;1.20;;
3601;SDS011;1815;50.950;6.920;2024-01-16T10:57:02;5.78;;;1.85;;
3601;SDS011;1815;50.950;6.920;2024-01-16T10:59:31;4.25;;;2.00;;
3601;SDS011;1815;50.950;6.920;2024-01-16T11:02:03;6.30;;;1.83;;
3601;SDS011;1815;50.950;6.920;2024-01-16T11:04:34;3.25;;;1.20;;
3601;SDS011;1815;50.950;6.920;2024-01-16T11:07:02;5.40;;;1.50;;
3601;SDS011;1815;50.950;6.920;2024-01-16T11:09:31;4.13;;;1.60;;
3601;SDS011;1815;50.950;6.920;2024-01-16T11:11:57;4.90;;;1.88;;
3601;SDS011;1815;50.950;6.920;2024-01-16T11:14:24;6.80;;;2.53;;
3601;SDS011;1815;50.950;6.920;2024-01-16T11:16:51;7.60;;;2.42;;
3601;SDS011;1815;50.950;6.920;2024-01-16T11:19:18;5.75;;;2.10;;
3601;SDS011;1815;50.950;6.920;2024-01-16T11:21:45;6.90;;;1.95;;
3601;SDS011;1815;50.950;6.920;2024-01-16T11:24:12;3.10;;;1.60;;
3601;SDS011;1815;50.950;6.920;2024-01-16T11:26:41;8.68;;;2.50;;
3601;SDS011;1815;50.950;6.920;2024-01-16T11:31:51;8.55;;;2.13;;
3601;SDS011;1815;50.950;6.920;2024-01-16T11:34:17;5.27;;;2.03;;
3601;SDS011;1815;50.950;6.920;2024-01-16T11:37:09;4.15;;;1.80;;
3601;SDS011;1815;50.950;6.920;2024-01-16T11:39:37;4.97;;;2.00;;
3601;SDS011;1815;50.950;6.920;2024-01-16T11:42:03;6.70;;;2.30;;
3601;SDS011;1815;50.950;6.920;2024-01-16T11:44:48;2.55;;;1.63;;
3601;SDS011;1815;50.950;6.920;2024-01-16T11:47:20;7.03;;;2.10;;
3601;SDS011;1815;50.950;6.920;2024-01-16T11:49:47;3.35;;;1.50;;
3601;SDS011;1815;50.950;6.920;2024-01-16T11:52:14;6.30;;;2.10;;
3601;SDS011;1815;50.950;6.920;2024-01-16T11:54:41;4.90;;;1.85;;
3601;SDS011;1815;50.950;6.920;2024-01-16T11:57:25;6.00;;;2.03;;
3601;SDS011;1815;50.950;6.920;2024-01-16T12:00:04;7.30;;;2.85;;
3601;SDS011;1815;50.950;6.920;2024-01-16T12:02:52;4.45;;;2.17;;
3601;SDS011;1815;50.950;6.920;2024-01-16T12:05:21;6.05;;;2.00;;
3601;SDS011;1815;50.950;6.920;2024-01-16T12:07:50;5.82;;;2.00;;
3601;SDS011;1815;50.950;6.920;2024-01-16T12:10:26;5.07;;;2.40;;
3601;SDS011;1815;50.950;6.920;2024-01-16T12:12:58;7.80;;;1.80;;
3601;SDS011;1815;50.950;6.920;2024-01-16T12:15:25;5.28;;;1.95;;
3601;SDS011;1815;50.950;6.920;2024-01-16T12:17:58;6.40;;;1.85;;
3601;SDS011;1815;50.950;6.920;2024-01-16T12:20:27;2.88;;;1.40;;
3601;SDS011;1815;50.950;6.920;2024-01-16T12:22:55;2.47;;;1.35;;
3601;SDS011;1815;50.950;6.920;2024-01-16T12:25:20;2.85;;;1.75;;
3601;SDS011;1815;50.950;6.920;2024-01-16T12:27:55;6.20;;;3.00;;
3601;SDS011;1815;50.950;6.920;2024-01-16T12:30:29;8.10;;;2.72;;
3601;SDS011;1815;50.950;6.920;2024-01-16T12:38:01;4.95;;;2.47;;
3601;SDS011;1815;50.950;6.920;2024-01-16T12:40:28;7.47;;;2.40;;
3601;SDS011;1815;50.950;6.920;2024-01-16T12:42:54;2.65;;;1.60;;
3601;SDS011;1815;50.950;6.920;2024-01-16T12:45:21;4.90;;;2.05;;
3601;SDS011;1815;50.950;6.920;2024-01-16T12:47:54;3.30;;;1.77;;
3601;SDS011;1815;50.950;6.920;2024-01-16T12:50:23;7.50;;;2.88;;
3601;SDS011;1815;50.950;6.920;2024-01-16T12:55:36;3.92;;;2.10;;
3601;SDS011;1815;50.950;6.920;2024-01-16T13:01:20;3.63;;;2.58;;
3601;SDS011;1815;50.950;6.920;2024-01-16T13:03:47;3.63;;;2.05;;
3601;SDS011;1815;50.950;6.920;2024-01-16T13:06:16;4.72;;;2.88;;
3601;SDS011;1815;50.950;6.920;2024-01-16T13:08:49;8.02;;;3.15;;
3601;SDS011;1815;50.950;6.920;2024-01-16T13:11:16;4.95;;;2.40;;
3601;SDS011;1815;50.950;6.920;2024-01-16T13:13:45;6.72;;;2.28;;
3601;SDS011;1815;50.950;6.920;2024-01-16T13:16:13;5.00;;;1.90;;
3601;SDS011;1815;50.950;6.920;2024-01-16T13:18:47;8.35;;;3.67;;
3601;SDS011;1815;50.950;6.920;2024-01-16T13:21:26;6.28;;;4.05;;
3601;SDS011;1815;50.950;6.920;2024-01-16T13:23:51;7.80;;;3.30;;
3601;SDS011;1815;50.950;6.920;2024-01-16T13:26:17;5.90;;;2.70;;
3601;SDS011;1815;50.950;6.920;2024-01-16T13:28:43;9.43;;;2.80;;
3601;SDS011;1815;50.950;6.920;2024-01-16T13:31:09;10.10;;;2.70;;
3601;SDS011;1815;50.950;6.920;2024-01-16T13:33:34;4.23;;;2.00;;
3601;SDS011;1815;50.950;6.920;2024-01-16T13:36:00;4.23;;;2.53;;
3601;SDS011;1815;50.950;6.920;2024-01-16T13:38:26;4.90;;;2.60;;
3601;SDS011;1815;50.950;6.920;2024-01-16T13:40:52;3.93;;;2.10;;
3601;SDS011;1815;50.950;6.920;2024-01-16T13:43:17;3.73;;;2.13;;
3601;SDS011;1815;50.950;6.920;2024-01-16T13:45:43;4.87;;;2.20;;
3601;SDS011;1815;50.950;6.920;2024-01-16T13:48:09;8.60;;;2.60;;
3601;SDS011;1815;50.950;6.920;2024-01-16T13:50:35;5.03;;;2.03;;
3601;SDS011;1815;50.950;6.920;2024-01-16T13:53:01;4.67;;;2.50;;
3601;SDS011;1815;50.950;6.920;2024-01-16T13:55:28;10.77;;;2.72;;
3601;SDS011;1815;50.950;6.920;2024-01-16T13:57:55;7.75;;;2.63;;
3601;SDS011;1815;50.950;6.920;2024-01-16T14:00:23;5.20;;;2.75;;
3601;SDS011;1815;50.950;6.920;2024-01-16T14:02:49;4.80;;;2.30;;
3601;SDS011;1815;50.950;6.920;2024-01-16T14:05:16;5.07;;;2.83;;
3601;SDS011;1815;50.950;6.920;2024-01-16T14:07:44;3.85;;;2.53;;
3601;SDS011;1815;50.950;6.920;2024-01-16T14:10:15;5.55;;;2.53;;
3601;SDS011;1815;50.950;6.920;2024-01-16T14:12:42;4.95;;;2.50;;
3601;SDS011;1815;50.950;6.920;2024-01-16T14:15:11;3.80;;;2.08;;
3601;SDS011;1815;50.950;6.920;2024-01-16T14:17:45;4.80;;;2.20;;
3601;SDS011;1815;50.950;6.920;2024-01-16T14:20:13;3.65;;;2.30;;
3601;SDS011;1815;50.950;6.920;2024-01-16T14:22:40;7.05;;;2.85;;
3601;SDS011;1815;50.950;6.920;2024-01-16T14:25:10;4.97;;;3.05;;
3601;SDS011;1815;50.950;6.920;2024-01-16T14:27:41;4.07;;;2.22;;
3601;SDS011;1815;50.950;6.920;2024-01-16T14:30:28;6.40;;;2.90;;
3601;SDS011;1815;50.950;6.920;2024-01-16T14:32:57;5.93;;;2.85;;
3601;SDS011;1815;50.950;6.920;2024-01-16T14:35:24;7.80;;;3.25;;
3601;SDS011;1815;50.950;6.920;2024-01-16T14:40:57;5.53;;;2.33;;
3601;SDS011;1815;50.950;6.920;2024-01-16T14:43:23;4.13;;;2.58;;
3601;SDS011;1815;50.950;6.920;2024-01-16T14:45:49;4.47;;;2.50;;
3601;SDS011;1815;50.950;6.920;2024-01-16T14:48:15;5.40;;;2.53;;
3601;SDS011;1815;50.950;6.920;2024-01-16T14:50:41;4.88;;;2.45;;
3601;SDS011;1815;50.950;6.920;2024-01-16T14:53:26;5.20;;;2.50;;
3601;SDS011;1815;50.950;6.920;2024-01-16T14:56:29;4.75;;;2.80;;
3601;SDS011;1815;50.950;6.920;2024-01-16T14:58:56;6.38;;;2.53;;
3601;SDS011;1815;50.950;6.920;2024-01-16T15:01:22;6.07;;;2.65;;
3601;SDS011;1815;50.950;6.920;2024-01-16T15:03:48;6.50;;;3.13;;
3601;SDS011;1815;50.950;6.920;2024-01-16T15:06:34;5.32;;;2.83;;
3601;SDS011;1815;50.950;6.920;2024-01-16T15:12:35;4.47;;;2.65;;
3601;SDS011;1815;50.950;6.920;2024-01-16T15:15:02;12.50;;;2.90;;
3601;SDS011;1815;50.950;6.920;2024-01-16T15:20:42;4.80;;;2.25;;
3601;SDS011;1815;50.950;6.920;2024-01-16T15:23:11;6.00;;;2.60;;
3601;SDS011;1815;50.950;6.920;2024-01-16T15:28:46;4.63;;;2.65;;
3601;SDS011;1815;50.950;6.920;2024-01-16T15:31:12;5.43;;;2.67;;
3601;SDS011;1815;50.950;6.920;2024-01-16T15:33:38;5.47;;;2.88;;
3601;SDS011;1815;50.950;6.920;2024-01-16T15:36:05;4.70;;;3.00;;
3601;SDS011;1815;50.950;6.920;2024-01-16T15:38:31;4.28;;;2.75;;
3601;SDS011;1815;50.950;6.920;2024-01-16T15:40:58;5.20;;;2.90;;
3601;SDS011;1815;50.950;6.920;2024-01-16T15:43:24;6.68;;;3.83;;
3601;SDS011;1815;50.950;6.920;2024-01-16T15:45:50;5.00;;;2.97;;